createdAt,value
2022-11-24T00:01:16.633Z,86.42
2022-11-24T00:03:46.522Z,86.47
2022-11-24T00:06:15.543Z,86.25
2022-11-24T00:08:45.108Z,86.51
2022-11-24T00:11:14.648Z,86.80
2022-11-24T00:13:42.665Z,86.74
2022-11-24T00:16:12.575Z,87.14
2022-11-24T00:18:41.101Z,87.21
2022-11-24T00:21:10.672Z,87.34
2022-11-24T00:23:38.838Z,87.50
2022-11-24T00:26:08.383Z,87.23
2022-11-24T00:28:36.917Z,87.38
2022-11-24T00:31:06.119Z,87.47
2022-11-24T00:33:33.989Z,87.34
2022-11-24T00:36:02.256Z,87.34
2022-11-24T00:38:31.414Z,87.34
2022-11-24T00:40:59.230Z,87.71
2022-11-24T00:43:27.175Z,87.73
2022-11-24T00:45:55.085Z,87.94
2022-11-24T00:48:23.538Z,87.93
2022-11-24T00:50:57.439Z,87.80
2022-11-24T00:53:25.501Z,88.00
2022-11-24T00:55:55.176Z,87.88
2022-11-24T00:58:23.544Z,87.74
2022-11-24T01:00:51.687Z,87.84
2022-11-24T01:03:20.463Z,87.68
2022-11-24T01:05:48.301Z,87.67
2022-11-24T01:08:16.183Z,87.75
2022-11-24T01:10:43.919Z,87.65
2022-11-24T01:13:13.311Z,87.60
2022-11-24T01:15:41.272Z,87.12
2022-11-24T01:18:09.104Z,87.42
2022-11-24T01:20:37.649Z,87.64
2022-11-24T01:23:05.439Z,87.61
2022-11-24T01:25:33.150Z,87.62
2022-11-24T01:28:00.928Z,87.71
2022-11-24T01:30:30.176Z,87.47
2022-11-24T01:32:57.928Z,87.44
2022-11-24T01:35:25.659Z,87.51
2022-11-24T01:37:53.414Z,87.75
2022-11-24T01:40:21.645Z,87.40
2022-11-24T01:42:50.898Z,87.51
2022-11-24T01:45:44.676Z,87.72
2022-11-24T01:48:17.205Z,87.53
2022-11-24T01:50:45.506Z,87.84
2022-11-24T01:53:13.570Z,87.60
2022-11-24T01:55:41.817Z,87.35
2022-11-24T01:58:12.731Z,87.23
2022-11-24T02:00:44.247Z,87.26
2022-11-24T02:03:13.558Z,87.29
2022-11-24T02:05:44.400Z,87.48
2022-11-24T02:08:16.147Z,87.30
2022-11-24T02:10:44.382Z,87.34
2022-11-24T02:13:12.241Z,87.64
2022-11-24T02:15:40.041Z,87.38
2022-11-24T02:18:09.403Z,87.47
2022-11-24T02:20:38.091Z,87.55
2022-11-24T02:23:11.330Z,87.20
2022-11-24T02:25:48.337Z,87.28
2022-11-24T02:28:19.527Z,87.07
2022-11-24T02:30:47.341Z,86.88
2022-11-24T02:33:15.585Z,87.13
2022-11-24T02:35:43.611Z,86.82
2022-11-24T02:38:13.336Z,87.05
2022-11-24T02:40:43.029Z,86.57
2022-11-24T02:43:14.269Z,86.59
2022-11-24T02:45:43.396Z,86.46
2022-11-24T02:48:11.187Z,86.46
2022-11-24T02:50:39.238Z,86.31
2022-11-24T02:53:07.106Z,86.42
2022-11-24T02:58:02.748Z,86.74
2022-11-24T03:00:30.468Z,86.49
2022-11-24T03:02:59.743Z,86.37
2022-11-24T03:05:27.825Z,86.29
2022-11-24T03:07:55.631Z,86.06
2022-11-24T03:10:24.414Z,86.24
2022-11-24T03:12:52.197Z,86.21
2022-11-24T03:15:19.960Z,86.13
2022-11-24T03:17:47.676Z,86.29
2022-11-24T03:20:17.179Z,86.37
2022-11-24T03:22:44.898Z,85.89
2022-11-24T03:25:12.634Z,86.21
2022-11-24T03:27:40.427Z,86.12
2022-11-24T03:30:09.499Z,86.01
2022-11-24T03:32:37.260Z,86.00
2022-11-24T03:35:06.082Z,85.96
2022-11-24T03:37:35.302Z,85.99
2022-11-24T03:40:03.076Z,85.81
2022-11-24T03:42:30.868Z,86.01
2022-11-24T03:45:04.261Z,85.80
2022-11-24T03:47:44.691Z,85.96
2022-11-24T03:50:12.432Z,85.67
2022-11-24T03:52:41.603Z,85.81
2022-11-24T03:55:09.422Z,85.56
2022-11-24T03:57:37.123Z,85.55
2022-11-24T04:00:06.831Z,85.42
2022-11-24T04:02:34.704Z,85.53
2022-11-24T04:05:02.507Z,85.68
2022-11-24T04:07:30.305Z,85.43
2022-11-24T04:09:59.680Z,85.42
2022-11-24T04:12:44.530Z,85.54
2022-11-24T04:15:13.227Z,85.36
2022-11-24T04:17:40.899Z,85.41
2022-11-24T04:20:09.840Z,85.09
2022-11-24T04:22:37.524Z,85.47
2022-11-24T04:25:08.293Z,85.42
2022-11-24T04:27:37.022Z,85.47
2022-11-24T04:30:04.958Z,85.37
2022-11-24T04:32:32.597Z,85.39
2022-11-24T04:35:00.224Z,85.66
2022-11-24T04:37:28.082Z,85.24
2022-11-24T04:39:55.992Z,85.09
2022-11-24T04:42:25.020Z,85.03
2022-11-24T04:44:52.656Z,85.07
2022-11-24T04:47:23.941Z,85.17
2022-11-24T04:49:51.878Z,84.93
2022-11-24T04:52:20.844Z,84.91
2022-11-24T04:54:48.643Z,84.80
2022-11-24T04:57:17.287Z,85.16
2022-11-24T04:59:46.464Z,85.06
2022-11-24T05:02:14.194Z,85.26
2022-11-24T05:04:42.102Z,85.11
2022-11-24T05:07:17.769Z,85.09
2022-11-24T05:10:03.711Z,85.42
2022-11-24T05:12:32.114Z,85.64
2022-11-24T05:15:01.995Z,85.57
2022-11-24T05:17:30.830Z,85.86
2022-11-24T05:19:58.754Z,86.07
2022-11-24T05:22:26.957Z,85.75
2022-11-24T05:24:54.631Z,86.02
2022-11-24T05:27:22.479Z,86.01
2022-11-24T05:29:50.363Z,85.91
2022-11-24T05:32:19.686Z,86.17
2022-11-24T05:34:47.968Z,85.79
2022-11-24T05:37:15.621Z,85.87
2022-11-24T05:39:43.606Z,85.69
2022-11-24T05:42:28.845Z,85.77
2022-11-24T05:44:57.429Z,86.07
2022-11-24T05:47:26.635Z,86.03
2022-11-24T05:49:54.294Z,86.22
2022-11-24T05:52:22.105Z,85.84
2022-11-24T05:54:49.773Z,86.10
2022-11-24T05:57:17.663Z,85.89
2022-11-24T05:59:46.117Z,85.86
2022-11-24T06:02:14.119Z,85.78
2022-11-24T06:04:43.302Z,85.72
2022-11-24T06:07:11.967Z,85.69
2022-11-24T06:09:40.475Z,85.60
2022-11-24T06:12:08.950Z,85.57
2022-11-24T06:14:36.764Z,85.77
2022-11-24T06:17:05.220Z,85.44
2022-11-24T06:19:34.132Z,85.62
2022-11-24T06:22:05.520Z,85.44
2022-11-24T06:24:33.467Z,85.10
2022-11-24T06:27:01.436Z,85.17
2022-11-24T06:29:29.055Z,85.26
2022-11-24T06:31:56.996Z,85.52
2022-11-24T06:34:24.784Z,85.37
2022-11-24T06:36:52.496Z,85.48
2022-11-24T06:39:21.536Z,85.95
2022-11-24T06:41:50.903Z,86.04
2022-11-24T06:44:18.675Z,86.16
2022-11-24T06:46:46.857Z,86.02
2022-11-24T06:49:14.540Z,86.25
2022-11-24T06:51:43.029Z,86.35
2022-11-24T06:54:13.815Z,86.03
2022-11-24T06:56:42.850Z,86.48
2022-11-24T06:59:17.210Z,86.40
2022-11-24T07:01:44.888Z,86.63
2022-11-24T07:04:12.496Z,86.53
2022-11-24T07:06:41.356Z,86.61
2022-11-24T07:09:09.939Z,86.53
2022-11-24T07:11:38.154Z,86.53
2022-11-24T07:14:07.645Z,86.61
2022-11-24T07:16:35.438Z,87.08
2022-11-24T07:19:03.298Z,87.17
2022-11-24T07:21:31.199Z,87.48
2022-11-24T07:23:59.360Z,87.46
2022-11-24T07:26:27.702Z,87.60
2022-11-24T07:28:55.585Z,87.50
2022-11-24T07:31:25.968Z,87.82
2022-11-24T07:33:55.022Z,87.61
2022-11-24T07:36:23.224Z,87.38
2022-11-24T07:38:51.343Z,87.48
2022-11-24T07:41:20.479Z,87.09
2022-11-24T07:43:49.118Z,87.03
2022-11-24T07:46:18.944Z,87.35
2022-11-24T07:48:48.379Z,87.37
2022-11-24T07:51:16.765Z,87.32
2022-11-24T07:53:44.884Z,87.20
2022-11-24T07:56:14.475Z,87.34
2022-11-24T07:58:42.168Z,87.06
2022-11-24T08:01:12.507Z,87.39
2022-11-24T08:03:40.436Z,87.11
2022-11-24T08:06:30.019Z,87.12
2022-11-24T08:08:58.159Z,87.27
2022-11-24T08:11:26.455Z,87.69
2022-11-24T08:13:54.345Z,87.65
2022-11-24T08:16:22.161Z,87.62
2022-11-24T08:18:51.310Z,87.86
2022-11-24T08:21:20.900Z,87.76
2022-11-24T08:23:48.595Z,88.06
2022-11-24T08:26:18.934Z,87.86
2022-11-24T08:28:47.692Z,88.12
2022-11-24T08:31:18.662Z,88.22
2022-11-24T08:33:47.052Z,88.18
2022-11-24T08:36:16.515Z,88.47
2022-11-24T08:38:46.213Z,88.43
2022-11-24T08:41:15.645Z,88.70
2022-11-24T08:43:43.785Z,88.75
2022-11-24T08:46:13.127Z,88.73
2022-11-24T08:48:41.538Z,88.81
2022-11-24T08:51:12.080Z,89.25
2022-11-24T08:53:40.036Z,89.38
2022-11-24T08:56:10.602Z,89.35
2022-11-24T08:58:39.022Z,89.54
2022-11-24T09:01:07.840Z,89.40
2022-11-24T09:03:35.865Z,89.40
2022-11-24T09:06:03.545Z,89.48
2022-11-24T09:08:31.617Z,89.35
2022-11-24T09:11:01.262Z,89.26
2022-11-24T09:13:30.541Z,89.44
2022-11-24T09:15:58.223Z,89.32
2022-11-24T09:18:30.046Z,89.51
2022-11-24T09:21:07.176Z,89.23
2022-11-24T09:23:35.078Z,89.05
2022-11-24T09:26:06.861Z,89.22
2022-11-24T09:28:36.311Z,89.56
2022-11-24T09:31:04.322Z,89.73
2022-11-24T09:33:32.526Z,89.76
2022-11-24T09:36:00.309Z,89.62
2022-11-24T09:38:28.783Z,89.67
2022-11-24T09:40:56.759Z,89.46
2022-11-24T09:43:29.668Z,89.35
2022-11-24T09:46:05.905Z,89.88
2022-11-24T09:48:37.536Z,89.44
2022-11-24T09:51:05.886Z,89.37
2022-11-24T09:53:37.283Z,89.00
2022-11-24T09:56:13.184Z,89.12
2022-11-24T09:58:44.448Z,89.76
2022-11-24T10:01:17.999Z,89.19
2022-11-24T10:03:47.709Z,89.59
2022-11-24T10:06:21.945Z,88.89
2022-11-24T10:09:12.176Z,89.02
2022-11-24T10:11:44.752Z,89.05
2022-11-24T10:14:29.537Z,88.83
2022-11-24T10:17:06.485Z,89.12
2022-11-24T10:19:41.443Z,89.10
2022-11-24T10:22:26.112Z,88.26
2022-11-24T10:25:09.253Z,88.91
2022-11-24T10:27:39.744Z,88.57
2022-11-24T10:30:15.262Z,88.73
2022-11-24T10:32:47.567Z,88.72
2022-11-24T10:35:18.472Z,88.69
2022-11-24T10:37:52.594Z,88.60
2022-11-24T10:40:49.152Z,88.65
2022-11-24T10:43:13.984Z,88.17
2022-11-24T10:45:42.024Z,87.95
2022-11-24T10:48:18.750Z,88.21
2022-11-24T10:50:46.493Z,87.94
2022-11-24T10:53:18.347Z,88.24
2022-11-24T10:56:02.891Z,88.07
2022-11-24T10:58:37.403Z,87.73
2022-11-24T11:01:21.213Z,87.79
2022-11-24T11:03:52.520Z,87.80
2022-11-24T11:06:23.576Z,87.67
2022-11-24T11:08:51.770Z,86.95
2022-11-24T11:11:22.039Z,87.02
2022-11-24T11:14:02.943Z,86.37
2022-11-24T11:16:36.139Z,86.46
2022-11-24T11:19:26.172Z,86.93
2022-11-24T11:22:01.508Z,86.77
2022-11-24T11:24:30.027Z,86.02
2022-11-24T11:27:01.536Z,86.19
2022-11-24T11:35:13.436Z,85.45
2022-11-24T11:37:41.791Z,85.57
2022-11-24T11:40:15.865Z,85.61
2022-11-24T11:43:01.952Z,85.81
2022-11-24T11:45:35.106Z,85.63
2022-11-24T11:48:15.074Z,85.83
2022-11-24T11:51:15.017Z,85.89
2022-11-24T11:53:44.796Z,86.53
2022-11-24T11:56:23.629Z,86.03
2022-11-24T11:59:28.009Z,86.90
2022-11-24T12:02:17.142Z,86.61
2022-11-24T12:04:48.534Z,86.76
2022-11-24T12:07:30.050Z,85.40
2022-11-24T12:10:02.708Z,84.88
2022-11-24T12:12:51.219Z,84.41
2022-11-24T12:15:23.759Z,84.71
2022-11-24T12:17:54.773Z,84.76
2022-11-24T12:20:37.485Z,85.42
2022-11-24T12:23:15.621Z,85.65
2022-11-24T12:25:46.969Z,85.18
2022-11-24T12:28:27.269Z,84.06
2022-11-24T12:31:06.849Z,84.61
2022-11-24T12:33:51.704Z,84.37
2022-11-24T12:36:32.444Z,84.99
2022-11-24T12:39:06.785Z,83.97
2022-11-24T12:41:47.233Z,84.17
2022-11-24T12:44:37.133Z,83.02
2022-11-24T12:47:12.724Z,82.64
2022-11-24T12:49:48.532Z,82.46
2022-11-24T12:52:21.592Z,82.04
2022-11-24T12:54:50.747Z,81.82
2022-11-24T12:57:21.851Z,82.56
2022-11-24T12:59:55.668Z,81.73
2022-11-24T13:02:30.043Z,80.70
2022-11-24T13:05:02.204Z,81.48
2022-11-24T13:07:40.486Z,81.53
2022-11-24T13:13:27.980Z,81.30
2022-11-24T13:19:08.215Z,81.76
2022-11-24T13:21:50.830Z,81.37
2022-11-24T13:24:26.883Z,82.56
2022-11-24T13:27:16.910Z,80.48
2022-11-24T13:29:45.432Z,80.02
2022-11-24T13:32:52.782Z,80.40
2022-11-24T13:35:20.476Z,81.72
2022-11-24T13:37:52.853Z,81.05
2022-11-24T13:40:54.348Z,81.05
2022-11-24T13:43:30.514Z,81.38
2022-11-24T13:45:58.165Z,80.59
2022-11-24T13:48:54.615Z,80.29
2022-11-24T13:51:25.468Z,79.97
2022-11-24T13:53:55.042Z,81.00
2022-11-24T13:56:25.858Z,80.64
2022-11-24T13:58:57.198Z,80.25
2022-11-24T14:01:26.170Z,80.05
2022-11-24T14:04:30.896Z,80.34
2022-11-24T14:07:07.284Z,80.58
2022-11-24T14:09:38.507Z,80.78
2022-11-24T14:12:12.770Z,80.16
2022-11-24T14:14:42.267Z,80.07
2022-11-24T14:20:18.116Z,80.14
2022-11-24T14:22:45.836Z,80.71
2022-11-24T14:25:21.725Z,80.74
2022-11-24T14:27:49.413Z,80.43
2022-11-24T14:30:21.141Z,80.10
2022-11-24T14:32:56.541Z,80.03
2022-11-24T14:35:27.828Z,80.25
2022-11-24T14:37:55.587Z,80.29
2022-11-24T14:40:43.957Z,80.38
2022-11-24T14:43:20.929Z,80.30
2022-11-24T14:45:50.908Z,80.34
2022-11-24T14:48:19.369Z,80.69
2022-11-24T14:50:48.525Z,80.83
2022-11-24T14:53:21.872Z,81.00
2022-11-24T14:56:07.575Z,80.90
2022-11-24T14:58:41.787Z,81.31
2022-11-24T15:01:12.157Z,81.42
2022-11-24T15:03:39.900Z,81.38
2022-11-24T15:06:17.923Z,81.50
2022-11-24T15:08:47.659Z,80.53
2022-11-24T15:11:15.420Z,80.51
2022-11-24T15:13:53.279Z,80.56
2022-11-24T15:16:22.100Z,80.67
2022-11-24T15:18:51.799Z,80.68
2022-11-24T15:21:31.474Z,80.72
2022-11-24T15:24:06.940Z,80.36
2022-11-24T15:29:13.547Z,80.95
2022-11-24T15:31:45.138Z,80.96
2022-11-24T15:34:15.465Z,81.11
2022-11-24T15:36:43.133Z,81.14
2022-11-24T15:39:10.777Z,81.33
2022-11-24T15:41:38.823Z,81.17
2022-11-24T15:44:06.530Z,81.71
2022-11-24T15:46:38.581Z,81.33
2022-11-24T15:49:07.446Z,81.51
2022-11-24T15:51:36.220Z,81.53
2022-11-24T15:54:03.938Z,81.54
2022-11-24T15:56:33.352Z,81.72
2022-11-24T15:59:01.045Z,81.73
2022-11-24T16:01:31.418Z,81.60
2022-11-24T16:04:00.721Z,81.48
2022-11-24T16:06:28.388Z,81.90
2022-11-24T16:08:56.438Z,81.61
2022-11-24T16:11:24.443Z,81.50
2022-11-24T16:13:54.051Z,81.46
2022-11-24T16:16:23.398Z,81.50
2022-11-24T16:18:51.376Z,81.55
2022-11-24T16:21:20.437Z,81.25
2022-11-24T16:23:48.702Z,81.31
2022-11-24T16:26:16.416Z,81.11
2022-11-24T16:28:45.632Z,81.50
2022-11-24T16:31:15.635Z,81.35
2022-11-24T16:33:44.790Z,81.88
2022-11-24T16:36:13.060Z,81.85
2022-11-24T16:38:42.134Z,81.53
2022-11-24T16:41:10.332Z,81.87
2022-11-24T16:43:38.290Z,81.51
2022-11-24T16:46:17.643Z,81.90
2022-11-24T16:48:45.935Z,81.72
2022-11-24T16:51:14.491Z,81.84
2022-11-24T16:53:44.219Z,81.83
2022-11-24T16:56:11.941Z,81.71
2022-11-24T16:58:40.744Z,81.61
2022-11-24T17:01:10.680Z,81.61
2022-11-24T17:03:38.630Z,81.64
2022-11-24T17:06:07.869Z,81.65
2022-11-24T17:08:36.746Z,81.47
2022-11-24T17:11:08.183Z,81.57
2022-11-24T17:13:35.874Z,81.30
2022-11-24T17:16:05.464Z,81.71
2022-11-24T17:18:33.250Z,81.62
2022-11-24T17:21:07.671Z,81.72
2022-11-24T17:23:37.091Z,81.47
2022-11-24T17:26:07.337Z,81.56
2022-11-24T17:28:35.389Z,81.52
2022-11-24T17:31:07.163Z,81.59
2022-11-24T17:33:35.107Z,81.68
2022-11-24T17:36:03.901Z,81.40
2022-11-24T17:38:32.038Z,81.46
2022-11-24T17:40:59.749Z,82.06
2022-11-24T17:43:28.749Z,81.79
2022-11-24T17:45:57.638Z,81.70
2022-11-24T17:48:25.531Z,81.60
2022-11-24T17:51:00.189Z,81.55
2022-11-24T17:53:27.864Z,81.54
2022-11-24T17:55:55.516Z,81.68
2022-11-24T17:58:23.278Z,81.70
2022-11-24T18:00:52.840Z,81.46
2022-11-24T18:03:20.536Z,81.86
2022-11-24T18:05:48.240Z,81.81
2022-11-24T18:08:15.890Z,81.72
2022-11-24T18:10:43.765Z,81.69
2022-11-24T18:13:27.440Z,81.72
2022-11-24T18:16:02.049Z,82.01
2022-11-24T18:18:29.823Z,81.85
2022-11-24T18:20:57.662Z,81.69
2022-11-24T18:23:25.563Z,81.59
2022-11-24T18:25:54.101Z,81.76
2022-11-24T18:28:22.168Z,82.06
2022-11-24T18:30:50.137Z,81.93
2022-11-24T18:33:19.358Z,82.20
2022-11-24T18:35:56.763Z,82.17
2022-11-24T18:38:24.643Z,82.24
2022-11-24T18:40:56.019Z,82.17
2022-11-24T18:43:24.182Z,82.54
2022-11-24T18:45:53.087Z,82.40
2022-11-24T18:48:23.036Z,82.41
2022-11-24T18:50:51.771Z,82.57
2022-11-24T18:53:19.859Z,82.34
2022-11-24T18:55:55.806Z,82.37
2022-11-24T18:58:23.577Z,82.39
2022-11-24T19:00:51.427Z,82.61
2022-11-24T19:03:19.322Z,82.56
2022-11-24T19:05:48.340Z,82.21
2022-11-24T19:08:16.015Z,82.24
2022-11-24T19:10:45.252Z,82.03
2022-11-24T19:13:14.323Z,82.33
2022-11-24T19:15:41.953Z,82.05
2022-11-24T19:18:09.595Z,81.78
2022-11-24T19:20:37.298Z,81.71
2022-11-24T19:23:06.416Z,81.74
2022-11-24T19:25:34.134Z,81.87
2022-11-24T19:28:01.819Z,81.69
2022-11-24T19:30:30.175Z,81.45
2022-11-24T19:32:58.123Z,81.21
2022-11-24T19:35:25.823Z,81.38
2022-11-24T19:37:53.527Z,81.22
2022-11-24T19:40:22.587Z,81.25
2022-11-24T19:42:50.857Z,80.81
2022-11-24T19:45:18.540Z,80.94
2022-11-24T19:47:46.167Z,80.86
2022-11-24T19:50:13.949Z,80.85
2022-11-24T19:52:41.607Z,80.81
2022-11-24T19:55:09.971Z,80.70
2022-11-24T19:57:39.020Z,80.92
2022-11-24T20:00:09.531Z,80.76
2022-11-24T20:02:37.344Z,80.83
2022-11-24T20:05:05.366Z,80.50
2022-11-24T20:07:33.005Z,80.86
2022-11-24T20:10:06.089Z,80.93
2022-11-24T20:12:35.329Z,80.95
2022-11-24T20:15:04.957Z,81.06
2022-11-24T20:17:32.857Z,80.73
2022-11-24T20:20:00.601Z,81.09
2022-11-24T20:22:28.247Z,80.87
2022-11-24T20:24:55.941Z,81.12
2022-11-24T20:27:23.633Z,80.96
2022-11-24T20:29:51.266Z,80.83
2022-11-24T20:32:20.699Z,80.76
2022-11-24T20:34:49.351Z,80.82
2022-11-24T20:37:17.008Z,80.79
2022-11-24T20:39:44.607Z,80.52
2022-11-24T20:42:12.274Z,80.38
2022-11-24T20:44:39.959Z,80.11
2022-11-24T20:47:07.668Z,80.01
2022-11-24T20:49:36.776Z,80.18
2022-11-24T20:52:04.536Z,80.02
2022-11-24T20:54:32.220Z,79.97
2022-11-24T20:57:00.038Z,79.85
2022-11-24T20:59:27.780Z,80.00
2022-11-24T21:01:56.168Z,79.79
2022-11-24T21:04:25.327Z,79.54
2022-11-24T21:06:54.688Z,79.54
2022-11-24T21:09:22.460Z,79.41
2022-11-24T21:11:50.627Z,79.52
2022-11-24T21:14:18.341Z,79.32
2022-11-24T21:16:46.138Z,79.45
2022-11-24T21:19:17.766Z,79.36
2022-11-24T21:21:47.431Z,79.18
2022-11-24T21:24:17.913Z,79.46
2022-11-24T21:26:47.820Z,79.21
2022-11-24T21:29:17.566Z,79.36
2022-11-24T21:31:45.654Z,79.27
2022-11-24T21:34:16.259Z,79.50
2022-11-24T21:36:45.555Z,79.29
2022-11-24T21:39:14.532Z,79.21
2022-11-24T21:41:44.710Z,79.30
2022-11-24T21:44:12.865Z,79.08
2022-11-24T21:46:44.963Z,79.30
2022-11-24T21:49:15.937Z,79.18
2022-11-24T21:51:43.531Z,79.12
2022-11-24T21:54:11.247Z,78.98
2022-11-24T21:56:38.929Z,79.17
2022-11-24T21:59:08.042Z,79.26
2022-11-24T22:01:35.809Z,79.07
2022-11-24T22:04:03.467Z,79.25
2022-11-24T22:06:32.086Z,78.82
2022-11-24T22:08:59.796Z,78.91
2022-11-24T22:11:27.474Z,78.95
2022-11-24T22:13:55.176Z,78.99
2022-11-24T22:16:25.571Z,78.91
2022-11-24T22:18:53.657Z,78.99
2022-11-24T22:21:23.785Z,78.98
2022-11-24T22:23:52.343Z,78.76
2022-11-24T22:26:22.301Z,78.71
2022-11-24T22:28:50.297Z,78.98
2022-11-24T22:31:19.441Z,79.05
2022-11-24T22:33:49.237Z,78.53
2022-11-24T22:36:18.232Z,78.84
2022-11-24T22:38:45.883Z,78.48
2022-11-24T22:41:15.111Z,78.78
2022-11-24T22:43:43.654Z,78.93
2022-11-24T22:46:12.699Z,79.08
2022-11-24T22:48:41.167Z,79.16
2022-11-24T22:51:11.912Z,79.02
2022-11-24T22:53:39.652Z,79.26
2022-11-24T22:56:09.823Z,79.23
2022-11-24T22:58:37.706Z,79.70
2022-11-24T23:01:06.465Z,80.18
2022-11-24T23:03:35.104Z,80.35
2022-11-24T23:06:02.934Z,80.58
2022-11-24T23:08:33.852Z,80.62
2022-11-24T23:11:02.092Z,81.00
2022-11-24T23:13:29.821Z,80.69
2022-11-24T23:16:01.319Z,80.84
2022-11-24T23:18:29.140Z,80.71
2022-11-24T23:20:56.864Z,81.03
2022-11-24T23:23:24.753Z,81.13
2022-11-24T23:25:54.109Z,81.09
2022-11-24T23:28:21.733Z,81.03
2022-11-24T23:30:49.338Z,80.88
2022-11-24T23:33:17.140Z,80.50
2022-11-24T23:35:44.856Z,80.84
2022-11-24T23:38:12.502Z,80.73
2022-11-24T23:40:40.159Z,80.65
2022-11-24T23:43:09.219Z,80.64
2022-11-24T23:45:36.901Z,80.61
2022-11-24T23:48:05.273Z,81.12
2022-11-24T23:50:32.957Z,80.88
2022-11-24T23:53:00.704Z,80.79
2022-11-24T23:55:28.275Z,80.91
2022-11-24T23:57:55.920Z,81.17
